MUHA/HAV METAR and TAF weather

Enter ICAO airport designator
Station Type Date Time Source
MUHA METAR 2020/07/13 13:55 UTC NOAA

MUHA 131355Z 18003KT 130V230 9000 FEW030 29/25 Q1017


Station Type Date Time Source
MUHA Decoded METAR 2020/07/13 13:55 UTC NOAA

Aeropuerto Jose Marti, Rancho-Boyeros, Habana, Cuba (MUHA) 22-59N 082-24W 75M
Jul 13, 2020 - 09:55 AM EDT / 2020.07.13 1355 UTC
Wind: from the S (180 degrees) at 3 MPH (3 KT) (direction variable):0
Visibility: 5 mile(s):0
Sky conditions: mostly clear
Temperature: 84 F (29 C)
Dew Point: 77 F (25 C)
Relative Humidity: 79%
Pressure (altimeter): 30.03 in. Hg (1017 hPa)
ob: MUHA 131355Z 18003KT 130V230 9000 FEW030 29/25 Q1017
cycle: 14

Station Type Date Time Source
MUHA TAF 2020/07/13 12:24 UTC NOAA

TAF TAF MUHA 131100Z 1312/1412 VRB03KT 8000 FEW025
BECMG 1315/1317 22005KT PROB30
TEMPO 1318/1323 VRB10KT 5000 SHRA FEW018CB BKN025
BECMG 1401/1403 VRB03KT SCT040

Example: see airport list